createdAt,value
2023-05-01T00:01:00.971Z,100029.60
2023-05-01T00:03:28.688Z,100028.19
2023-05-01T00:05:59.849Z,100028.52
2023-05-01T00:08:27.494Z,100022.54
2023-05-01T00:10:55.171Z,100022.71
2023-05-01T00:13:24.002Z,100021.83
2023-05-01T00:15:51.908Z,100023.59
2023-05-01T00:18:19.657Z,100020.79
2023-05-01T00:20:47.882Z,100022.17
2023-05-01T00:23:18.874Z,100024.29
2023-05-01T00:25:46.067Z,100026.21
2023-05-01T00:28:12.961Z,100028.30
2023-05-01T00:30:40.372Z,100034.44
2023-05-01T00:33:08.167Z,100036.38
2023-05-01T00:35:35.330Z,100038.14
2023-05-01T00:38:02.931Z,100040.77
2023-05-01T00:40:30.353Z,100040.25
2023-05-01T00:42:58.000Z,100043.06
2023-05-01T00:45:24.885Z,100041.13
2023-05-01T00:47:52.409Z,100038.81
2023-05-01T00:50:19.960Z,100044.06
2023-05-01T00:52:47.042Z,100042.11
2023-05-01T00:55:14.510Z,100044.23
2023-05-01T00:57:41.530Z,100043.02
2023-05-01T01:00:12.017Z,100047.39
2023-05-01T01:02:40.440Z,100045.81
2023-05-01T01:05:10.189Z,100050.21
2023-05-01T01:07:46.715Z,100047.39
2023-05-01T01:10:47.293Z,100046.33
2023-05-01T01:13:18.951Z,100042.27
2023-05-01T01:16:04.327Z,100037.88
2023-05-01T01:18:44.410Z,100040.14
2023-05-01T01:21:15.961Z,100041.19
2023-05-01T01:23:53.540Z,100036.63
2023-05-01T01:26:32.744Z,100035.21
2023-05-01T01:29:07.419Z,100037.29
2023-05-01T01:31:52.037Z,100035.71
2023-05-01T01:34:27.365Z,100035.91
2023-05-01T01:37:02.203Z,100041.72
2023-05-01T01:39:42.007Z,100037.68
2023-05-01T01:42:10.100Z,100042.39
2023-05-01T01:44:48.472Z,100044.70
2023-05-01T01:47:15.380Z,100043.63
2023-05-01T01:49:46.133Z,100046.42
2023-05-01T01:52:14.394Z,100045.89
2023-05-01T01:54:44.769Z,100045.00
2023-05-01T01:57:13.171Z,100050.96
2023-05-01T01:59:40.149Z,100051.86
2023-05-01T02:02:07.163Z,100057.11
2023-05-01T02:04:35.176Z,100059.20
2023-05-01T02:07:04.085Z,100062.39
2023-05-01T02:09:31.251Z,100065.90
2023-05-01T02:11:58.677Z,100064.34
2023-05-01T02:14:26.395Z,100062.39
2023-05-01T02:16:53.444Z,100065.00
2023-05-01T02:19:22.233Z,100067.27
2023-05-01T02:21:49.477Z,100065.86
2023-05-01T02:24:17.772Z,100072.90
2023-05-01T02:26:49.181Z,100076.57
2023-05-01T02:29:16.397Z,100080.41
2023-05-01T02:31:43.763Z,100079.73
2023-05-01T02:34:11.019Z,100085.68
2023-05-01T02:36:38.599Z,100084.66
2023-05-01T02:39:06.765Z,100088.02
2023-05-01T02:41:34.880Z,100091.00
2023-05-01T02:44:04.289Z,100095.77
2023-05-01T02:46:32.875Z,100093.86
2023-05-01T02:49:00.995Z,100094.39
2023-05-01T02:51:28.988Z,100097.73
2023-05-01T02:53:55.884Z,100100.88
2023-05-01T02:56:23.749Z,100105.59
2023-05-01T02:58:50.897Z,100110.86
2023-05-01T03:01:18.870Z,100113.31
2023-05-01T03:03:46.309Z,100117.33
2023-05-01T03:06:16.423Z,100116.27
2023-05-01T03:08:43.938Z,100117.88
2023-05-01T03:11:11.086Z,100125.26
2023-05-01T03:13:38.015Z,100134.04
2023-05-01T03:16:05.958Z,100137.88
2023-05-01T03:18:33.045Z,100140.86
2023-05-01T03:21:00.158Z,100142.79
2023-05-01T03:23:28.038Z,100145.27
2023-05-01T03:25:55.083Z,100145.10
2023-05-01T03:28:23.141Z,100146.70
2023-05-01T03:30:53.329Z,100152.13
2023-05-01T03:33:21.484Z,100152.34
2023-05-01T03:35:50.840Z,100159.02
2023-05-01T03:38:17.989Z,100159.15
2023-05-01T03:41:19.554Z,100157.97
2023-05-01T03:44:05.996Z,100165.95
2023-05-01T03:46:41.483Z,100167.58
2023-05-01T03:49:10.750Z,100169.52
2023-05-01T03:51:45.935Z,100175.82
2023-05-01T03:54:13.628Z,100177.73
2023-05-01T03:57:01.331Z,100181.40
2023-05-01T03:59:28.259Z,100181.77
2023-05-01T04:01:55.735Z,100175.43
2023-05-01T04:04:24.312Z,100180.86
2023-05-01T04:06:56.594Z,100185.29
2023-05-01T04:09:23.737Z,100184.62
2023-05-01T04:11:50.773Z,100183.79
2023-05-01T04:14:17.661Z,100182.05
2023-05-01T04:16:45.141Z,100184.69
2023-05-01T04:19:12.620Z,100185.36
2023-05-01T04:21:41.898Z,100184.98
2023-05-01T04:24:09.906Z,100186.04
2023-05-01T04:26:36.787Z,100188.16
2023-05-01T04:29:04.240Z,100191.50
2023-05-01T04:31:31.190Z,100194.86
2023-05-01T04:33:58.701Z,100197.34
2023-05-01T04:36:27.490Z,100200.16
2023-05-01T04:38:54.547Z,100199.66
2023-05-01T04:41:22.000Z,100203.55
2023-05-01T04:43:49.552Z,100207.42
2023-05-01T04:46:18.774Z,100205.81
2023-05-01T04:48:46.205Z,100206.68
2023-05-01T04:51:13.357Z,100207.57
2023-05-01T04:53:41.427Z,100208.26
2023-05-01T04:56:17.134Z,100206.73
2023-05-01T04:58:44.961Z,100205.51
2023-05-01T05:01:14.914Z,100209.73
2023-05-01T05:03:42.675Z,100212.02
2023-05-01T05:06:11.155Z,100216.80
2023-05-01T05:08:38.107Z,100217.36
2023-05-01T05:11:10.431Z,100215.64
2023-05-01T05:13:57.149Z,100219.89
2023-05-01T05:16:24.842Z,100220.42
2023-05-01T05:18:54.945Z,100224.81
2023-05-01T05:21:22.244Z,100229.75
2023-05-01T05:23:52.531Z,100232.23
2023-05-01T05:26:19.708Z,100234.20
2023-05-01T05:28:47.894Z,100231.41
2023-05-01T05:31:14.973Z,100230.71
2023-05-01T05:33:42.654Z,100228.44
2023-05-01T05:36:10.058Z,100224.05
2023-05-01T05:38:40.810Z,100227.58
2023-05-01T05:41:09.865Z,100229.70
2023-05-01T05:43:36.828Z,100230.59
2023-05-01T05:46:04.639Z,100227.25
2023-05-01T05:48:33.237Z,100231.13
2023-05-01T05:51:00.587Z,100237.30
2023-05-01T05:53:27.517Z,100234.13
2023-05-01T05:55:55.469Z,100236.06
2023-05-01T05:58:24.178Z,100237.81
2023-05-01T06:00:52.748Z,100239.23
2023-05-01T06:03:20.822Z,100238.34
2023-05-01T06:05:48.193Z,100239.03
2023-05-01T06:08:16.558Z,100239.89
2023-05-01T06:10:43.510Z,100240.59
2023-05-01T06:13:14.052Z,100241.98
2023-05-01T06:15:46.334Z,100246.34
2023-05-01T06:18:13.486Z,100246.13
2023-05-01T06:20:40.645Z,100251.70
2023-05-01T06:23:09.602Z,100256.58
2023-05-01T06:25:55.669Z,100257.70
2023-05-01T06:28:22.998Z,100257.75
2023-05-01T06:30:50.499Z,100259.27
2023-05-01T06:33:18.869Z,100255.48
2023-05-01T06:35:46.448Z,100254.68
2023-05-01T06:38:13.888Z,100260.09
2023-05-01T06:40:41.145Z,100260.63
2023-05-01T06:43:08.079Z,100264.91
2023-05-01T06:45:35.332Z,100268.13
2023-05-01T06:48:02.346Z,100271.52
2023-05-01T06:50:29.934Z,100274.89
2023-05-01T06:52:59.438Z,100277.92
2023-05-01T06:55:26.913Z,100280.59
2023-05-01T06:57:54.004Z,100286.09
2023-05-01T07:00:21.402Z,100289.13
2023-05-01T07:02:48.799Z,100287.98
2023-05-01T07:05:15.907Z,100293.57
2023-05-01T07:07:50.455Z,100300.33
2023-05-01T07:10:21.369Z,100304.77
2023-05-01T07:12:48.646Z,100307.27
2023-05-01T07:15:16.081Z,100309.40
2023-05-01T07:17:44.078Z,100315.76
2023-05-01T07:20:12.074Z,100316.82
2023-05-01T07:22:39.219Z,100320.52
2023-05-01T07:25:06.776Z,100326.69
2023-05-01T07:27:34.558Z,100332.15
2023-05-01T07:30:03.283Z,100336.37
2023-05-01T07:32:32.627Z,100341.11
2023-05-01T07:35:00.245Z,100342.85
2023-05-01T07:37:28.413Z,100347.05
2023-05-01T07:39:56.937Z,100346.90
2023-05-01T07:42:24.066Z,100348.65
2023-05-01T07:44:51.368Z,100351.66
2023-05-01T07:47:18.947Z,100353.98
2023-05-01T07:49:46.411Z,100359.29
2023-05-01T07:52:14.910Z,100360.38
2023-05-01T07:54:42.334Z,100366.20
2023-05-01T07:57:11.043Z,100369.36
2023-05-01T07:59:38.400Z,100369.89
2023-05-01T08:02:05.678Z,100373.77
2023-05-01T08:04:32.920Z,100381.16
2023-05-01T08:06:59.937Z,100380.08
2023-05-01T08:09:26.931Z,100378.12
2023-05-01T08:11:55.901Z,100384.73
2023-05-01T08:14:23.252Z,100380.73
2023-05-01T08:16:54.652Z,100378.83
2023-05-01T08:19:21.668Z,100382.98
2023-05-01T08:21:48.792Z,100381.02
2023-05-01T08:24:15.934Z,100383.52
2023-05-01T08:26:43.015Z,100386.04
2023-05-01T08:29:10.684Z,100388.26
2023-05-01T08:31:38.743Z,100387.45
2023-05-01T08:34:05.818Z,100395.44
2023-05-01T08:36:33.430Z,100393.35
2023-05-01T08:39:00.904Z,100400.95
2023-05-01T08:41:28.459Z,100398.84
2023-05-01T08:43:56.556Z,100403.61
2023-05-01T08:46:38.599Z,100405.60
2023-05-01T08:49:06.441Z,100402.97
2023-05-01T08:51:34.181Z,100407.34
2023-05-01T08:54:01.913Z,100406.77
2023-05-01T08:56:29.574Z,100414.15
2023-05-01T08:58:57.948Z,100415.20
2023-05-01T09:01:24.931Z,100416.42
2023-05-01T09:03:52.345Z,100414.65
2023-05-01T09:06:19.979Z,100419.05
2023-05-01T09:08:47.221Z,100419.92
2023-05-01T09:11:16.507Z,100421.02
2023-05-01T09:13:44.438Z,100423.86
2023-05-01T09:16:11.435Z,100424.42
2023-05-01T09:18:40.513Z,100428.89
2023-05-01T09:21:08.052Z,100431.20
2023-05-01T09:23:37.120Z,100435.25
2023-05-01T09:26:07.356Z,100436.84
2023-05-01T09:28:43.325Z,100442.50
2023-05-01T09:31:29.717Z,100441.80
2023-05-01T09:34:18.071Z,100445.14
2023-05-01T09:36:47.072Z,100451.14
2023-05-01T09:39:17.075Z,100448.83
2023-05-01T09:41:52.048Z,100447.79
2023-05-01T09:44:19.558Z,100453.61
2023-05-01T09:46:49.532Z,100453.08
2023-05-01T09:49:18.133Z,100459.77
2023-05-01T09:51:45.933Z,100460.66
2023-05-01T09:54:19.520Z,100464.00
2023-05-01T09:56:47.476Z,100467.01
2023-05-01T09:59:16.744Z,100471.23
2023-05-01T10:01:46.636Z,100474.35
2023-05-01T10:04:16.347Z,100475.16
2023-05-01T10:06:44.587Z,100473.48
2023-05-01T10:09:18.683Z,100474.14
2023-05-01T10:11:55.529Z,100474.60
2023-05-01T10:14:27.714Z,100476.86
2023-05-01T10:17:04.456Z,100480.21
2023-05-01T10:19:41.881Z,100482.86
2023-05-01T10:22:09.105Z,100485.18
2023-05-01T10:24:47.874Z,100490.88
2023-05-01T10:27:16.578Z,100493.77
2023-05-01T10:29:46.802Z,100496.05
2023-05-01T10:32:16.123Z,100499.38
2023-05-01T10:34:51.405Z,100501.27
2023-05-01T10:37:39.468Z,100500.14
2023-05-01T10:40:39.514Z,100506.27
2023-05-01T10:43:28.262Z,100502.72
2023-05-01T10:46:31.297Z,100508.52
2023-05-01T10:48:58.938Z,100507.77
2023-05-01T10:51:28.079Z,100509.83
2023-05-01T10:54:27.821Z,100512.63
2023-05-01T10:57:00.714Z,100510.46
2023-05-01T11:00:01.353Z,100510.21
2023-05-01T11:02:29.949Z,100507.33
2023-05-01T11:04:57.343Z,100512.04
2023-05-01T11:07:26.572Z,100511.24
2023-05-01T11:09:54.869Z,100517.20
2023-05-01T11:12:50.909Z,100517.37
2023-05-01T11:15:28.743Z,100518.93
2023-05-01T11:18:00.267Z,100526.15
2023-05-01T11:20:31.036Z,100529.89
2023-05-01T11:22:59.210Z,100532.23
2023-05-01T11:25:29.977Z,100534.72
2023-05-01T11:27:59.166Z,100537.44
2023-05-01T11:30:26.524Z,100536.06
2023-05-01T11:32:54.455Z,100536.97
2023-05-01T11:35:25.749Z,100537.84
2023-05-01T11:37:56.698Z,100535.56
2023-05-01T11:40:35.197Z,100533.28
2023-05-01T11:43:08.878Z,100534.70
2023-05-01T11:45:37.089Z,100535.23
2023-05-01T11:48:05.845Z,100537.02
2023-05-01T11:50:36.387Z,100535.59
2023-05-01T11:53:11.491Z,100536.29
2023-05-01T11:55:39.732Z,100535.73
2023-05-01T11:58:07.328Z,100539.57
2023-05-01T12:00:38.949Z,100539.00
2023-05-01T12:03:10.318Z,100538.79
2023-05-01T12:05:43.758Z,100545.67
2023-05-01T12:08:23.320Z,100550.08
2023-05-01T12:10:55.606Z,100546.73
2023-05-01T12:13:27.450Z,100551.51
2023-05-01T12:15:56.526Z,100555.73
2023-05-01T12:18:23.538Z,100555.55
2023-05-01T12:21:03.035Z,100554.30
2023-05-01T12:23:35.346Z,100557.15
2023-05-01T12:26:02.957Z,100567.77
2023-05-01T12:28:30.576Z,100562.99
2023-05-01T12:31:05.162Z,100565.82
2023-05-01T12:33:33.256Z,100569.52
2023-05-01T12:36:11.741Z,100569.32
2023-05-01T12:38:39.032Z,100576.38
2023-05-01T12:41:08.312Z,100575.11
2023-05-01T12:43:37.295Z,100579.31
2023-05-01T12:46:07.244Z,100583.19
2023-05-01T12:48:39.590Z,100581.05
2023-05-01T12:51:07.325Z,100588.48
2023-05-01T12:53:34.912Z,100588.52
2023-05-01T12:56:02.920Z,100592.58
2023-05-01T12:58:36.706Z,100595.80
2023-05-01T13:01:03.912Z,100593.51
2023-05-01T13:03:33.793Z,100594.41
2023-05-01T13:06:02.700Z,100599.02
2023-05-01T13:08:41.118Z,100603.45
2023-05-01T13:11:16.553Z,100602.39
2023-05-01T13:13:44.616Z,100606.27
2023-05-01T13:16:15.609Z,100609.98
2023-05-01T13:18:47.049Z,100615.46
2023-05-01T13:21:15.985Z,100617.55
2023-05-01T13:23:52.301Z,100618.95
2023-05-01T13:26:35.314Z,100618.02
2023-05-01T13:29:06.039Z,100617.26
2023-05-01T13:31:34.298Z,100613.48
2023-05-01T13:34:01.915Z,100614.70
2023-05-01T13:36:32.942Z,100610.24
2023-05-01T13:39:02.734Z,100616.06
2023-05-01T13:41:29.991Z,100619.94
2023-05-01T13:43:59.434Z,100624.17
2023-05-01T13:46:27.279Z,100622.92
2023-05-01T13:48:55.833Z,100628.08
2023-05-01T13:51:24.833Z,100623.60
2023-05-01T13:53:54.188Z,100623.19
2023-05-01T13:56:21.902Z,100620.64
2023-05-01T13:58:50.513Z,100623.58
2023-05-01T14:01:20.562Z,100624.06
2023-05-01T14:03:48.485Z,100620.11
2023-05-01T14:06:17.507Z,100622.27
2023-05-01T14:08:45.842Z,100624.79
2023-05-01T14:11:13.602Z,100625.70
2023-05-01T14:13:42.644Z,100630.84
2023-05-01T14:16:22.955Z,100627.14
2023-05-01T14:18:52.952Z,100629.67
2023-05-01T14:21:20.389Z,100633.06
2023-05-01T14:23:47.808Z,100635.75
2023-05-01T14:26:26.848Z,100637.23
2023-05-01T14:28:55.165Z,100637.14
2023-05-01T14:31:24.706Z,100637.02
2023-05-01T14:33:59.784Z,100641.11
2023-05-01T14:36:31.289Z,100639.91
2023-05-01T14:38:59.772Z,100641.69
2023-05-01T14:41:26.959Z,100639.41
2023-05-01T14:43:55.076Z,100644.73
2023-05-01T14:46:31.390Z,100648.09
2023-05-01T14:48:59.681Z,100649.86
2023-05-01T14:51:28.064Z,100656.23
2023-05-01T14:53:57.637Z,100659.27
2023-05-01T14:56:24.924Z,100661.06
2023-05-01T14:58:55.778Z,100661.80
2023-05-01T15:01:29.352Z,100666.95
2023-05-01T15:04:00.524Z,100669.27
2023-05-01T15:06:29.894Z,100668.92
2023-05-01T15:08:57.194Z,100671.95
2023-05-01T15:11:26.296Z,100676.20
2023-05-01T15:13:54.935Z,100677.82
2023-05-01T15:16:22.458Z,100681.72
2023-05-01T15:18:50.569Z,100686.86
2023-05-01T15:21:19.675Z,100683.67
2023-05-01T15:24:03.860Z,100680.48
2023-05-01T15:26:31.275Z,100682.94
2023-05-01T15:28:59.180Z,100685.05
2023-05-01T15:31:27.269Z,100686.61
2023-05-01T15:33:55.574Z,100688.54
2023-05-01T15:36:23.313Z,100692.23
2023-05-01T15:38:51.156Z,100694.37
2023-05-01T15:41:59.565Z,100694.91
2023-05-01T15:44:43.196Z,100699.71
2023-05-01T15:47:11.577Z,100701.33
2023-05-01T15:49:41.727Z,100702.77
2023-05-01T15:52:38.064Z,100709.69
2023-05-01T15:55:48.327Z,100713.42
2023-05-01T15:59:11.805Z,100718.05
2023-05-01T16:02:18.929Z,100725.48
2023-05-01T16:05:07.663Z,100728.84
2023-05-01T16:08:42.293Z,100731.47
2023-05-01T16:11:32.462Z,100735.52
2023-05-01T16:14:02.752Z,100740.83
2023-05-01T16:17:45.975Z,100748.11
2023-05-01T16:20:40.721Z,100752.75
2023-05-01T16:23:52.363Z,100763.04
2023-05-01T16:27:09.615Z,100767.48
2023-05-01T16:30:42.855Z,100777.56
2023-05-01T16:34:19.591Z,100782.67
2023-05-01T16:36:50.650Z,100795.23
2023-05-01T16:39:19.580Z,100801.61
2023-05-01T16:41:48.762Z,100807.11
2023-05-01T16:44:22.473Z,100809.29
2023-05-01T16:47:03.692Z,100809.84
2023-05-01T16:49:58.410Z,100805.25
2023-05-01T16:53:57.004Z,100808.27
2023-05-01T16:57:10.461Z,100819.60
2023-05-01T17:00:45.464Z,100825.98
2023-05-01T17:04:04.539Z,100827.59
2023-05-01T17:06:34.865Z,100832.34
2023-05-01T17:09:11.006Z,100835.35
2023-05-01T17:12:16.193Z,100837.66
2023-05-01T17:15:13.463Z,100841.38
2023-05-01T17:18:59.932Z,100847.39
2023-05-01T17:22:29.258Z,100849.85
2023-05-01T17:25:43.587Z,100858.52
2023-05-01T17:29:32.891Z,100862.23
2023-05-01T17:32:40.829Z,100864.00
2023-05-01T17:35:45.552Z,100869.31
2023-05-01T17:39:04.213Z,100870.02
2023-05-01T17:41:53.223Z,100877.08
2023-05-01T17:44:53.573Z,100879.73
2023-05-01T17:48:00.952Z,100884.86
2023-05-01T17:51:28.781Z,100898.64
2023-05-01T17:54:24.677Z,100904.83
2023-05-01T17:57:58.973Z,100908.69
2023-05-01T18:00:28.605Z,100913.27
2023-05-01T18:03:35.194Z,100920.67
2023-05-01T18:06:08.189Z,100925.80
2023-05-01T18:08:47.761Z,100933.93
2023-05-01T18:11:37.945Z,100939.73
2023-05-01T18:14:09.335Z,100939.89
2023-05-01T18:16:50.056Z,100945.00
2023-05-01T18:20:14.112Z,100947.64
2023-05-01T18:23:14.002Z,100956.64
2023-05-01T18:26:08.802Z,100958.91
2023-05-01T18:29:26.292Z,100963.46
2023-05-01T18:32:01.049Z,100966.82
2023-05-01T18:34:36.751Z,100970.19
2023-05-01T18:37:43.579Z,100975.11
2023-05-01T18:40:48.257Z,100977.75
2023-05-01T18:43:42.578Z,100973.69
2023-05-01T18:46:12.723Z,100976.52
2023-05-01T18:49:02.706Z,100977.40
2023-05-01T18:51:51.606Z,100977.53
2023-05-01T18:54:50.539Z,100977.67
2023-05-01T18:57:52.265Z,100982.95
2023-05-01T19:00:56.622Z,100985.22
2023-05-01T19:03:46.888Z,100987.66
2023-05-01T19:06:58.525Z,100993.62
2023-05-01T19:09:28.416Z,100998.77
2023-05-01T19:12:23.496Z,101004.74
2023-05-01T19:15:47.844Z,101010.04
2023-05-01T19:18:38.182Z,101011.61
2023-05-01T19:21:41.451Z,101015.61
2023-05-01T19:24:34.052Z,101020.02
2023-05-01T19:27:18.395Z,101025.39
2023-05-01T19:30:15.948Z,101030.60
2023-05-01T19:33:21.382Z,101033.19
2023-05-01T19:35:54.545Z,101036.48
2023-05-01T19:38:22.858Z,101035.08
2023-05-01T19:40:52.041Z,101035.95
2023-05-01T19:43:19.865Z,101038.20
2023-05-01T19:46:09.921Z,101045.09
2023-05-01T19:48:43.096Z,101044.73
2023-05-01T19:51:14.778Z,101045.52
2023-05-01T19:54:17.727Z,101049.65
2023-05-01T19:57:43.902Z,101057.16
2023-05-01T20:00:57.625Z,101058.83
2023-05-01T20:04:35.763Z,101060.76
2023-05-01T20:08:07.316Z,101063.83
2023-05-01T20:10:34.736Z,101071.02
2023-05-01T20:13:31.848Z,101071.00
2023-05-01T20:16:33.868Z,101069.42
2023-05-01T20:19:01.398Z,101066.77
2023-05-01T20:22:08.680Z,101067.08
2023-05-01T20:24:39.832Z,101065.23
2023-05-01T20:28:04.173Z,101060.27
2023-05-01T20:31:07.086Z,101064.16
2023-05-01T20:33:36.438Z,101065.12
2023-05-01T20:36:25.367Z,101067.89
2023-05-01T20:39:14.470Z,101070.48
2023-05-01T20:41:58.867Z,101070.29
2023-05-01T20:45:08.188Z,101069.95
2023-05-01T20:48:00.253Z,101076.02
2023-05-01T20:51:09.786Z,101082.23
2023-05-01T20:53:40.724Z,101086.09
2023-05-01T20:56:30.131Z,101090.77
2023-05-01T20:59:00.177Z,101094.23
2023-05-01T21:02:10.265Z,101093.00
2023-05-01T21:04:58.000Z,101094.41
2023-05-01T21:07:43.681Z,101094.42
2023-05-01T21:10:14.466Z,101102.00
2023-05-01T21:12:59.703Z,101099.84
2023-05-01T21:15:51.234Z,101105.02
2023-05-01T21:19:01.049Z,101101.26
2023-05-01T21:21:54.996Z,101103.63
2023-05-01T21:24:24.638Z,101103.54
2023-05-01T21:26:57.352Z,101107.02
2023-05-01T21:29:25.445Z,101109.76
2023-05-01T21:32:02.765Z,101108.65
2023-05-01T21:34:38.573Z,101112.23
2023-05-01T21:37:08.476Z,101116.75
2023-05-01T21:39:36.284Z,101115.42
2023-05-01T21:42:05.369Z,101118.73
2023-05-01T21:44:32.404Z,101122.03
2023-05-01T21:47:01.182Z,101122.71
2023-05-01T21:49:52.090Z,101125.04
2023-05-01T21:52:25.326Z,101124.33
2023-05-01T21:54:55.363Z,101129.88
2023-05-01T21:57:44.146Z,101127.38
2023-05-01T22:00:20.632Z,101128.25
2023-05-01T22:03:09.308Z,101127.69
2023-05-01T22:05:40.596Z,101130.98
2023-05-01T22:08:08.515Z,101130.75
2023-05-01T22:10:37.834Z,101130.00
2023-05-01T22:13:07.560Z,101131.23
2023-05-01T22:15:42.935Z,101135.95
2023-05-01T22:18:10.755Z,101136.34
2023-05-01T22:20:38.264Z,101138.86
2023-05-01T22:23:07.208Z,101142.27
2023-05-01T22:25:34.208Z,101145.84
2023-05-01T22:28:04.008Z,101146.67
2023-05-01T22:30:44.751Z,101146.09
2023-05-01T22:33:12.032Z,101150.09
2023-05-01T22:35:40.066Z,101150.59
2023-05-01T22:38:50.430Z,101151.80
2023-05-01T22:41:37.324Z,101152.23
2023-05-01T22:44:22.476Z,101159.20
2023-05-01T22:46:53.163Z,101159.22
2023-05-01T22:49:23.808Z,101166.15
2023-05-01T22:52:10.085Z,101162.20
2023-05-01T22:54:58.058Z,101169.48
2023-05-01T22:57:46.053Z,101170.11
2023-05-01T23:00:36.077Z,101175.42
2023-05-01T23:03:24.095Z,101178.48
2023-05-01T23:05:53.479Z,101181.33
2023-05-01T23:09:02.637Z,101181.95
2023-05-01T23:11:53.932Z,101185.09
2023-05-01T23:14:26.718Z,101186.89
2023-05-01T23:17:22.631Z,101185.42
2023-05-01T23:20:34.027Z,101185.27
2023-05-01T23:23:05.303Z,101184.90
2023-05-01T23:25:55.493Z,101183.15
2023-05-01T23:29:00.055Z,101186.59
2023-05-01T23:31:31.361Z,101183.67
2023-05-01T23:34:04.280Z,101190.48
2023-05-01T23:36:33.972Z,101191.70
2023-05-01T23:39:02.744Z,101196.10
2023-05-01T23:41:30.283Z,101195.80
2023-05-01T23:44:59.371Z,101201.00
2023-05-01T23:47:54.641Z,101203.50
2023-05-01T23:50:25.800Z,101207.69
2023-05-01T23:53:39.492Z,101209.33
2023-05-01T23:56:11.319Z,101209.04
2023-05-01T23:59:24.189Z,101212.01
